createdAt,value
2024-05-09T00:00:56.746Z,79.70
2024-05-09T00:05:01.580Z,79.64
2024-05-09T00:09:08.765Z,79.46
2024-05-09T00:13:13.609Z,79.51
2024-05-09T00:17:18.191Z,79.04
2024-05-09T00:21:22.975Z,79.32
2024-05-09T00:25:30.101Z,79.25
2024-05-09T00:29:34.904Z,79.13
2024-05-09T00:33:39.773Z,78.71
2024-05-09T00:37:44.504Z,78.73
2024-05-09T00:41:51.908Z,79.32
2024-05-09T00:45:58.402Z,79.33
2024-05-09T00:50:05.531Z,78.95
2024-05-09T00:54:12.048Z,79.33
2024-05-09T00:58:23.043Z,79.22
2024-05-09T01:02:28.705Z,79.17
2024-05-09T01:06:33.382Z,79.65
2024-05-09T01:10:38.170Z,79.69
2024-05-09T01:14:45.570Z,79.90
2024-05-09T01:18:50.710Z,79.45
2024-05-09T01:22:56.670Z,79.87
2024-05-09T01:27:03.826Z,79.97
2024-05-09T01:31:08.954Z,79.79
2024-05-09T01:35:13.668Z,79.76
2024-05-09T01:39:18.234Z,80.05
2024-05-09T01:43:25.368Z,79.82
2024-05-09T01:47:30.197Z,80.00
2024-05-09T01:51:35.061Z,79.66
2024-05-09T01:55:39.559Z,79.67
2024-05-09T01:59:46.952Z,79.77
2024-05-09T02:03:51.951Z,79.82
2024-05-09T02:07:57.164Z,79.43
2024-05-09T02:12:01.795Z,79.56
2024-05-09T02:16:13.341Z,79.26
2024-05-09T02:20:26.816Z,79.11
2024-05-09T02:24:35.066Z,78.73
2024-05-09T02:28:39.778Z,79.12
2024-05-09T02:32:47.117Z,78.94
2024-05-09T02:36:51.941Z,78.99
2024-05-09T02:40:56.754Z,78.82
2024-05-09T02:45:01.246Z,79.11
2024-05-09T02:49:08.698Z,79.20
2024-05-09T02:53:14.766Z,78.85
2024-05-09T02:57:19.792Z,78.67
2024-05-09T03:01:22.082Z,79.09
2024-05-09T03:05:29.459Z,79.31
2024-05-09T03:09:34.209Z,78.90
2024-05-09T03:13:41.305Z,79.07
2024-05-09T03:17:45.998Z,79.12
2024-05-09T03:21:53.824Z,79.11
2024-05-09T03:25:58.500Z,79.46
2024-05-09T03:30:05.501Z,79.21
2024-05-09T03:34:11.833Z,79.37
2024-05-09T03:38:19.309Z,79.48
2024-05-09T03:42:24.126Z,79.97
2024-05-09T03:46:28.650Z,79.74
2024-05-09T03:50:35.698Z,80.13
2024-05-09T03:54:48.173Z,80.29
2024-05-09T03:58:53.008Z,80.00
2024-05-09T04:02:57.984Z,80.10
2024-05-09T04:07:02.679Z,80.33
2024-05-09T04:11:10.183Z,80.09
2024-05-09T04:15:15.013Z,80.47
2024-05-09T04:19:20.112Z,80.46
2024-05-09T04:23:24.907Z,80.25
2024-05-09T04:27:32.302Z,80.33
2024-05-09T04:31:39.029Z,80.52
2024-05-09T04:35:45.155Z,80.96
2024-05-09T04:39:50.000Z,81.02
2024-05-09T04:43:57.657Z,81.18
2024-05-09T04:48:03.034Z,81.27
2024-05-09T04:52:08.711Z,81.58
2024-05-09T04:56:13.521Z,81.49
2024-05-09T05:00:28.927Z,81.77
2024-05-09T05:04:40.336Z,81.62
2024-05-09T05:08:44.845Z,81.91
2024-05-09T05:13:05.157Z,81.75
2024-05-09T05:17:12.369Z,81.94
2024-05-09T05:21:17.008Z,81.82
2024-05-09T05:25:21.871Z,81.65
2024-05-09T05:29:26.437Z,81.72
2024-05-09T05:33:33.745Z,81.79
2024-05-09T05:37:38.465Z,81.62
2024-05-09T05:41:43.142Z,81.53
2024-05-09T05:45:48.153Z,81.36
2024-05-09T05:49:55.527Z,81.13
2024-05-09T05:54:00.087Z,80.87
2024-05-09T05:58:04.906Z,80.86
2024-05-09T06:02:06.960Z,80.59
2024-05-09T06:06:16.359Z,80.45
2024-05-09T06:10:25.682Z,79.89
2024-05-09T06:14:34.794Z,79.29
2024-05-09T06:18:39.816Z,79.34
2024-05-09T06:22:47.139Z,78.71
2024-05-09T06:26:52.058Z,78.37
2024-05-09T06:30:56.747Z,77.96
2024-05-09T06:34:58.667Z,76.71
2024-05-09T06:39:06.239Z,76.38
2024-05-09T06:43:14.461Z,76.00
2024-05-09T06:47:19.894Z,75.60
2024-05-09T06:51:24.725Z,74.84
2024-05-09T06:55:32.093Z,73.79
2024-05-09T06:59:36.987Z,73.25
2024-05-09T07:03:44.113Z,72.38
2024-05-09T07:07:49.006Z,71.95
2024-05-09T07:11:56.343Z,71.04
2024-05-09T07:15:58.643Z,70.44
2024-05-09T07:20:05.468Z,70.02
2024-05-09T07:24:12.328Z,69.17
2024-05-09T07:28:21.071Z,68.45
2024-05-09T07:32:26.211Z,67.83
2024-05-09T07:36:30.814Z,67.87
2024-05-09T07:40:37.017Z,67.21
2024-05-09T07:44:44.597Z,66.31
2024-05-09T07:57:04.753Z,63.93
2024-05-09T08:01:12.267Z,63.91
2024-05-09T08:05:14.699Z,63.19
2024-05-09T08:09:21.169Z,62.93
2024-05-09T08:13:26.111Z,62.41
2024-05-09T08:17:33.492Z,61.26
2024-05-09T08:21:38.088Z,60.04
2024-05-09T08:25:42.808Z,60.13
2024-05-09T08:29:47.620Z,59.14
2024-05-09T08:33:56.778Z,58.87
2024-05-09T08:38:01.819Z,57.86
2024-05-09T08:42:10.541Z,57.87
2024-05-09T08:46:18.456Z,58.05
2024-05-09T08:50:35.396Z,56.08
2024-05-09T08:54:43.198Z,56.54
2024-05-09T08:58:48.527Z,54.90
2024-05-09T09:02:54.997Z,55.15
2024-05-09T09:07:03.635Z,54.03
2024-05-09T09:11:08.609Z,52.25
2024-05-09T09:15:13.119Z,51.65
2024-05-09T09:19:18.027Z,50.99
2024-05-09T09:23:27.304Z,50.17
2024-05-09T09:27:29.305Z,50.17
2024-05-09T09:31:34.101Z,50.03
2024-05-09T09:35:39.146Z,50.84
2024-05-09T09:39:49.128Z,51.03
2024-05-09T09:43:56.336Z,51.80
2024-05-09T09:48:02.254Z,52.18
2024-05-09T09:52:11.012Z,51.70
2024-05-09T09:56:20.374Z,50.93
2024-05-09T10:00:30.642Z,50.15
2024-05-09T10:04:38.007Z,50.25
2024-05-09T10:08:43.692Z,47.65
2024-05-09T10:13:00.509Z,47.56
2024-05-09T10:17:08.753Z,48.69
2024-05-09T10:21:23.016Z,47.72
2024-05-09T10:25:27.776Z,47.61
2024-05-09T10:29:34.998Z,47.57
2024-05-09T10:33:41.675Z,46.36
2024-05-09T10:37:46.680Z,46.01
2024-05-09T10:41:53.547Z,46.48
2024-05-09T10:46:01.196Z,46.29
2024-05-09T10:50:15.668Z,45.89
2024-05-09T10:54:28.106Z,45.74
2024-05-09T10:58:33.115Z,46.37
2024-05-09T11:02:40.402Z,44.76
2024-05-09T11:06:45.374Z,44.82
2024-05-09T11:10:48.970Z,44.05
2024-05-09T11:14:56.827Z,45.15
2024-05-09T11:19:04.462Z,46.15
2024-05-09T11:23:09.984Z,45.72
2024-05-09T11:27:15.177Z,46.23
2024-05-09T11:31:19.871Z,44.71
2024-05-09T11:35:29.393Z,44.47
2024-05-09T11:39:33.980Z,45.04
2024-05-09T11:43:38.665Z,43.90
2024-05-09T11:47:43.550Z,43.91
2024-05-09T11:51:50.942Z,44.90
2024-05-09T11:55:55.749Z,45.55
2024-05-09T12:00:00.412Z,46.43
2024-05-09T12:04:05.607Z,45.26
2024-05-09T12:08:14.267Z,43.83
2024-05-09T12:12:18.997Z,44.18
2024-05-09T12:16:24.317Z,43.61
2024-05-09T12:20:36.177Z,43.81
2024-05-09T12:24:46.389Z,44.93
2024-05-09T12:28:51.262Z,45.02
2024-05-09T12:32:53.610Z,44.37
2024-05-09T12:36:59.022Z,43.98
2024-05-09T12:41:06.351Z,43.47
2024-05-09T12:45:11.307Z,43.05
2024-05-09T12:49:18.698Z,42.84
2024-05-09T12:53:24.106Z,41.08
2024-05-09T12:57:31.262Z,42.02
2024-05-09T13:01:35.924Z,39.37
2024-05-09T13:05:41.496Z,38.70
2024-05-09T13:09:46.582Z,36.92
2024-05-09T13:13:54.104Z,38.43
2024-05-09T13:18:02.630Z,39.16
2024-05-09T13:22:08.388Z,39.00
2024-05-09T13:26:13.350Z,38.02
2024-05-09T13:30:26.398Z,37.49
2024-05-09T13:34:39.139Z,40.04
2024-05-09T13:38:41.410Z,38.83
2024-05-09T13:42:48.681Z,38.11
2024-05-09T13:46:56.161Z,37.82
2024-05-09T13:51:00.981Z,38.28
2024-05-09T13:55:05.804Z,37.19
2024-05-09T13:59:11.405Z,36.49
2024-05-09T14:03:20.664Z,37.26
2024-05-09T14:07:25.965Z,36.36
2024-05-09T14:11:30.441Z,37.10
2024-05-09T14:15:34.891Z,37.29
2024-05-09T14:19:42.181Z,35.56
2024-05-09T14:23:47.074Z,35.73
2024-05-09T14:27:52.619Z,36.15
2024-05-09T14:31:57.132Z,36.34
2024-05-09T14:36:04.580Z,35.96
2024-05-09T14:40:21.574Z,34.92
2024-05-09T14:44:34.848Z,34.22
2024-05-09T14:48:39.841Z,34.79
2024-05-09T14:52:47.079Z,35.97
2024-05-09T14:56:51.731Z,36.93
2024-05-09T15:00:56.504Z,37.25
2024-05-09T15:05:01.505Z,37.99
2024-05-09T15:09:07.907Z,36.34
2024-05-09T15:13:15.457Z,36.73
2024-05-09T15:17:21.271Z,36.62
2024-05-09T15:21:26.230Z,36.72
2024-05-09T15:25:33.861Z,36.17
2024-05-09T15:29:39.323Z,35.39
2024-05-09T15:33:44.362Z,36.49
2024-05-09T15:37:49.358Z,36.00
2024-05-09T15:41:57.576Z,34.53
2024-05-09T15:46:02.793Z,33.52
2024-05-09T15:50:09.824Z,34.39
2024-05-09T15:54:21.082Z,34.17
2024-05-09T15:58:30.282Z,33.57
2024-05-09T16:02:35.109Z,35.55
2024-05-09T16:06:40.090Z,34.13
2024-05-09T16:10:46.208Z,34.33
2024-05-09T16:14:54.469Z,34.05
2024-05-09T16:18:59.357Z,34.21
2024-05-09T16:23:04.387Z,34.68
2024-05-09T16:27:08.890Z,34.85
2024-05-09T16:31:16.238Z,34.31
2024-05-09T16:35:20.730Z,33.77
2024-05-09T16:39:25.578Z,34.13
2024-05-09T16:43:29.999Z,34.47
2024-05-09T16:47:37.582Z,34.24
2024-05-09T16:51:42.532Z,33.91
2024-05-09T16:55:47.457Z,33.83
2024-05-09T16:59:52.146Z,34.48
2024-05-09T17:03:59.859Z,35.26
2024-05-09T17:08:04.693Z,35.67
2024-05-09T17:12:09.366Z,36.68
2024-05-09T17:16:15.759Z,36.95
2024-05-09T17:20:29.728Z,36.71
2024-05-09T17:24:38.709Z,35.83
2024-05-09T17:28:43.690Z,34.81
2024-05-09T17:32:48.375Z,35.42
2024-05-09T17:36:55.927Z,34.62
2024-05-09T17:41:00.918Z,35.50
2024-05-09T17:45:06.306Z,35.12
2024-05-09T17:49:11.148Z,36.77
2024-05-09T17:53:19.028Z,37.57
2024-05-09T17:57:23.891Z,38.60
2024-05-09T18:01:28.735Z,40.10
2024-05-09T18:05:31.464Z,41.66
2024-05-09T18:09:38.899Z,42.42
2024-05-09T18:13:43.739Z,42.91
2024-05-09T18:17:48.533Z,43.72
2024-05-09T18:21:53.251Z,44.25
2024-05-09T18:26:01.334Z,45.36
2024-05-09T18:30:09.446Z,45.79
2024-05-09T18:34:16.520Z,46.92
2024-05-09T18:38:25.541Z,47.57
2024-05-09T18:42:32.782Z,48.87
2024-05-09T18:46:37.800Z,49.11
2024-05-09T18:50:42.591Z,48.97
2024-05-09T18:54:47.884Z,49.12
2024-05-09T18:58:55.303Z,49.96
2024-05-09T19:03:00.042Z,50.76
2024-05-09T19:07:05.460Z,51.32
2024-05-09T19:11:10.246Z,51.47
2024-05-09T19:15:18.008Z,51.88
2024-05-09T19:19:23.086Z,52.52
2024-05-09T19:23:27.780Z,52.65
2024-05-09T19:27:32.706Z,52.98
2024-05-09T19:31:40.076Z,54.00
2024-05-09T19:35:45.159Z,54.77
2024-05-09T19:39:50.098Z,55.28
2024-05-09T19:43:54.691Z,55.50
2024-05-09T19:48:02.214Z,56.01
2024-05-09T19:52:07.676Z,57.50
2024-05-09T19:56:12.383Z,56.82
2024-05-09T20:00:22.253Z,57.59
2024-05-09T20:04:37.374Z,57.32
2024-05-09T20:08:42.256Z,58.50
2024-05-09T20:12:47.029Z,59.25
2024-05-09T20:16:51.908Z,58.87
2024-05-09T20:21:00.309Z,59.62
2024-05-09T20:25:05.683Z,59.94
2024-05-09T20:29:10.207Z,60.28
2024-05-09T20:33:14.939Z,60.95
2024-05-09T20:37:23.151Z,61.15
2024-05-09T20:41:27.674Z,61.82
2024-05-09T20:45:32.331Z,62.35
2024-05-09T20:49:37.083Z,62.37
2024-05-09T20:53:44.514Z,62.91
2024-05-09T20:57:49.155Z,63.63
2024-05-09T21:01:54.316Z,64.27
2024-05-09T21:05:59.318Z,64.68
2024-05-09T21:10:15.303Z,65.02
2024-05-09T21:14:24.174Z,65.21
2024-05-09T21:18:28.761Z,65.83
2024-05-09T21:22:33.674Z,65.86
2024-05-09T21:26:41.341Z,66.14
2024-05-09T21:30:46.189Z,66.48
2024-05-09T21:34:50.866Z,66.66
2024-05-09T21:38:55.923Z,67.42
2024-05-09T21:43:04.032Z,67.64
2024-05-09T21:47:09.036Z,67.74
2024-05-09T21:51:16.382Z,68.51
2024-05-09T21:55:21.196Z,68.87
2024-05-09T21:59:28.550Z,69.50
2024-05-09T22:03:33.635Z,69.65
2024-05-09T22:07:35.665Z,69.97
2024-05-09T22:11:40.338Z,70.61
2024-05-09T22:15:47.618Z,70.40
2024-05-09T22:19:52.785Z,70.79
2024-05-09T22:23:57.531Z,70.59
2024-05-09T22:28:02.957Z,70.89
2024-05-09T22:32:10.887Z,71.58
2024-05-09T22:36:13.148Z,72.28
2024-05-09T22:40:28.228Z,72.19
2024-05-09T22:44:41.615Z,72.40
2024-05-09T22:48:49.128Z,72.79
2024-05-09T22:52:54.038Z,73.38
2024-05-09T22:56:58.811Z,73.66
2024-05-09T23:01:03.644Z,74.04
2024-05-09T23:05:11.305Z,73.63
2024-05-09T23:09:16.254Z,73.50
2024-05-09T23:13:21.113Z,73.64
2024-05-09T23:17:26.157Z,73.57
2024-05-09T23:21:33.974Z,73.50
2024-05-09T23:25:41.000Z,73.31
2024-05-09T23:29:46.398Z,73.59
2024-05-09T23:33:51.754Z,73.78
2024-05-09T23:37:58.958Z,73.81
2024-05-09T23:42:03.502Z,74.06
2024-05-09T23:46:08.431Z,74.35
2024-05-09T23:50:20.218Z,74.47
2024-05-09T23:54:30.852Z,74.71
2024-05-09T23:58:35.601Z,75.02
